sensor_id;sensor_type;location;lat;lon;timestamp;P1;durP1;ratioP1;P2;durP2;ratioP2
826;SDS011;395;48.132;11.608;2023-05-02T00:01:28;3.40;;;3.10;;
826;SDS011;395;48.132;11.608;2023-05-02T00:03:54;2.93;;;2.73;;
826;SDS011;395;48.132;11.608;2023-05-02T00:06:20;3.37;;;2.90;;
826;SDS011;395;48.132;11.608;2023-05-02T00:08:47;2.93;;;2.73;;
826;SDS011;395;48.132;11.608;2023-05-02T00:11:14;3.00;;;2.80;;
826;SDS011;395;48.132;11.608;2023-05-02T00:13:39;3.53;;;3.23;;
826;SDS011;395;48.132;11.608;2023-05-02T00:16:05;2.87;;;2.67;;
826;SDS011;395;48.132;11.608;2023-05-02T00:18:31;3.37;;;3.07;;
826;SDS011;395;48.132;11.608;2023-05-02T00:20:57;3.20;;;3.00;;
826;SDS011;395;48.132;11.608;2023-05-02T00:23:22;4.50;;;3.20;;
826;SDS011;395;48.132;11.608;2023-05-02T00:25:48;3.63;;;3.27;;
826;SDS011;395;48.132;11.608;2023-05-02T00:28:14;3.40;;;3.07;;
826;SDS011;395;48.132;11.608;2023-05-02T00:30:43;3.90;;;3.50;;
826;SDS011;395;48.132;11.608;2023-05-02T00:33:10;3.50;;;3.20;;
826;SDS011;395;48.132;11.608;2023-05-02T00:35:37;3.70;;;3.10;;
826;SDS011;395;48.132;11.608;2023-05-02T00:38:03;3.20;;;2.90;;
826;SDS011;395;48.132;11.608;2023-05-02T00:40:29;2.90;;;2.70;;
826;SDS011;395;48.132;11.608;2023-05-02T00:42:54;3.37;;;3.07;;
826;SDS011;395;48.132;11.608;2023-05-02T00:45:21;3.17;;;2.87;;
826;SDS011;395;48.132;11.608;2023-05-02T00:47:46;3.43;;;3.13;;
826;SDS011;395;48.132;11.608;2023-05-02T00:50:14;3.70;;;3.40;;
826;SDS011;395;48.132;11.608;2023-05-02T00:52:40;3.00;;;2.80;;
826;SDS011;395;48.132;11.608;2023-05-02T00:55:06;3.27;;;2.97;;
826;SDS011;395;48.132;11.608;2023-05-02T00:57:32;4.07;;;3.70;;
826;SDS011;395;48.132;11.608;2023-05-02T00:59:58;3.00;;;2.70;;
826;SDS011;395;48.132;11.608;2023-05-02T01:05:12;3.40;;;3.10;;
826;SDS011;395;48.132;11.608;2023-05-02T01:10:18;3.30;;;2.97;;
826;SDS011;395;48.132;11.608;2023-05-02T01:13:05;2.80;;;2.60;;
826;SDS011;395;48.132;11.608;2023-05-02T01:15:42;2.90;;;2.60;;
826;SDS011;395;48.132;11.608;2023-05-02T01:18:10;3.23;;;2.93;;
826;SDS011;395;48.132;11.608;2023-05-02T01:20:38;3.67;;;3.37;;
826;SDS011;395;48.132;11.608;2023-05-02T01:23:13;3.10;;;2.80;;
826;SDS011;395;48.132;11.608;2023-05-02T01:31:21;3.23;;;2.93;;
826;SDS011;395;48.132;11.608;2023-05-02T01:33:49;3.40;;;3.10;;
826;SDS011;395;48.132;11.608;2023-05-02T01:36:16;2.87;;;2.67;;
826;SDS011;395;48.132;11.608;2023-05-02T01:38:43;5.10;;;3.20;;
826;SDS011;395;48.132;11.608;2023-05-02T01:41:09;3.63;;;3.30;;
826;SDS011;395;48.132;11.608;2023-05-02T01:43:36;3.20;;;3.00;;
826;SDS011;395;48.132;11.608;2023-05-02T01:46:04;3.23;;;2.53;;
826;SDS011;395;48.132;11.608;2023-05-02T01:48:32;3.47;;;3.17;;
826;SDS011;395;48.132;11.608;2023-05-02T01:51:00;3.00;;;2.80;;
826;SDS011;395;48.132;11.608;2023-05-02T01:53:28;3.30;;;3.00;;
826;SDS011;395;48.132;11.608;2023-05-02T01:55:56;3.20;;;3.00;;
826;SDS011;395;48.132;11.608;2023-05-02T01:58:24;4.63;;;3.17;;
826;SDS011;395;48.132;11.608;2023-05-02T02:00:52;3.43;;;3.00;;
826;SDS011;395;48.132;11.608;2023-05-02T02:03:19;3.30;;;3.00;;
826;SDS011;395;48.132;11.608;2023-05-02T02:05:46;3.30;;;3.00;;
826;SDS011;395;48.132;11.608;2023-05-02T02:08:13;4.17;;;3.77;;
826;SDS011;395;48.132;11.608;2023-05-02T02:10:42;4.00;;;3.70;;
826;SDS011;395;48.132;11.608;2023-05-02T02:13:17;3.20;;;2.90;;
826;SDS011;395;48.132;11.608;2023-05-02T02:15:50;3.97;;;3.57;;
826;SDS011;395;48.132;11.608;2023-05-02T02:18:22;3.70;;;3.40;;
826;SDS011;395;48.132;11.608;2023-05-02T02:20:50;4.00;;;3.13;;
826;SDS011;395;48.132;11.608;2023-05-02T02:23:18;3.83;;;3.50;;
826;SDS011;395;48.132;11.608;2023-05-02T02:25:47;3.87;;;3.13;;
826;SDS011;395;48.132;11.608;2023-05-02T02:28:14;3.70;;;3.40;;
826;SDS011;395;48.132;11.608;2023-05-02T02:30:40;3.43;;;3.13;;
826;SDS011;395;48.132;11.608;2023-05-02T02:33:06;3.17;;;2.90;;
826;SDS011;395;48.132;11.608;2023-05-02T02:35:33;3.07;;;2.87;;
826;SDS011;395;48.132;11.608;2023-05-02T02:38:18;3.47;;;3.17;;
826;SDS011;395;48.132;11.608;2023-05-02T02:40:53;4.03;;;3.10;;
826;SDS011;395;48.132;11.608;2023-05-02T02:46:13;3.07;;;2.87;;
826;SDS011;395;48.132;11.608;2023-05-02T02:54:34;2.97;;;2.73;;
826;SDS011;395;48.132;11.608;2023-05-02T03:00:38;3.23;;;3.03;;
826;SDS011;395;48.132;11.608;2023-05-02T03:02:45;3.10;;;2.90;;
826;SDS011;395;48.132;11.608;2023-05-02T03:05:12;4.60;;;3.20;;
826;SDS011;395;48.132;11.608;2023-05-02T03:07:38;3.40;;;2.97;;
826;SDS011;395;48.132;11.608;2023-05-02T03:10:05;3.20;;;3.00;;
826;SDS011;395;48.132;11.608;2023-05-02T03:12:33;2.27;;;2.13;;
826;SDS011;395;48.132;11.608;2023-05-02T03:15:06;2.70;;;2.50;;
826;SDS011;395;48.132;11.608;2023-05-02T03:17:51;4.67;;;3.13;;
826;SDS011;395;48.132;11.608;2023-05-02T03:20:17;3.30;;;3.00;;
826;SDS011;395;48.132;11.608;2023-05-02T03:22:43;3.53;;;3.23;;
826;SDS011;395;48.132;11.608;2023-05-02T03:25:08;3.40;;;3.10;;
826;SDS011;395;48.132;11.608;2023-05-02T03:27:34;2.70;;;2.50;;
826;SDS011;395;48.132;11.608;2023-05-02T03:30:00;3.40;;;3.10;;
826;SDS011;395;48.132;11.608;2023-05-02T03:32:25;2.80;;;2.60;;
826;SDS011;395;48.132;11.608;2023-05-02T03:34:51;3.30;;;3.00;;
826;SDS011;395;48.132;11.608;2023-05-02T03:37:22;5.00;;;3.30;;
826;SDS011;395;48.132;11.608;2023-05-02T03:39:48;3.53;;;3.27;;
826;SDS011;395;48.132;11.608;2023-05-02T03:42:13;3.03;;;2.83;;
826;SDS011;395;48.132;11.608;2023-05-02T03:44:39;3.10;;;2.87;;
826;SDS011;395;48.132;11.608;2023-05-02T03:47:05;3.43;;;3.13;;
826;SDS011;395;48.132;11.608;2023-05-02T03:49:33;3.50;;;3.20;;
826;SDS011;395;48.132;11.608;2023-05-02T03:51:59;3.00;;;2.80;;
826;SDS011;395;48.132;11.608;2023-05-02T03:54:25;3.33;;;3.03;;
826;SDS011;395;48.132;11.608;2023-05-02T03:56:52;3.90;;;3.17;;
826;SDS011;395;48.132;11.608;2023-05-02T03:59:18;3.03;;;2.83;;
826;SDS011;395;48.132;11.608;2023-05-02T04:01:47;4.30;;;3.90;;
826;SDS011;395;48.132;11.608;2023-05-02T04:04:14;3.50;;;3.10;;
826;SDS011;395;48.132;11.608;2023-05-02T04:06:40;4.07;;;3.67;;
826;SDS011;395;48.132;11.608;2023-05-02T04:09:06;3.10;;;2.90;;
826;SDS011;395;48.132;11.608;2023-05-02T04:11:32;2.90;;;2.60;;
826;SDS011;395;48.132;11.608;2023-05-02T04:13:58;2.90;;;2.70;;
826;SDS011;395;48.132;11.608;2023-05-02T04:16:24;3.10;;;2.90;;
826;SDS011;395;48.132;11.608;2023-05-02T04:18:50;3.43;;;3.13;;
826;SDS011;395;48.132;11.608;2023-05-02T04:21:15;3.10;;;2.90;;
826;SDS011;395;48.132;11.608;2023-05-02T04:23:41;2.90;;;2.70;;
826;SDS011;395;48.132;11.608;2023-05-02T04:26:07;3.70;;;3.33;;
826;SDS011;395;48.132;11.608;2023-05-02T04:28:33;3.13;;;2.93;;
826;SDS011;395;48.132;11.608;2023-05-02T04:30:59;3.93;;;3.00;;
826;SDS011;395;48.132;11.608;2023-05-02T04:33:25;3.70;;;3.40;;
826;SDS011;395;48.132;11.608;2023-05-02T04:35:50;4.17;;;3.77;;
826;SDS011;395;48.132;11.608;2023-05-02T04:38:16;6.00;;;3.30;;
826;SDS011;395;48.132;11.608;2023-05-02T04:40:42;4.20;;;3.80;;
826;SDS011;395;48.132;11.608;2023-05-02T04:43:08;4.03;;;3.33;;
826;SDS011;395;48.132;11.608;2023-05-02T04:45:34;3.20;;;2.90;;
826;SDS011;395;48.132;11.608;2023-05-02T04:48:00;3.93;;;3.53;;
826;SDS011;395;48.132;11.608;2023-05-02T04:50:26;3.40;;;3.10;;
826;SDS011;395;48.132;11.608;2023-05-02T04:52:52;3.60;;;3.30;;
826;SDS011;395;48.132;11.608;2023-05-02T04:55:18;4.40;;;3.80;;
826;SDS011;395;48.132;11.608;2023-05-02T04:57:43;3.43;;;3.13;;
826;SDS011;395;48.132;11.608;2023-05-02T05:00:09;3.53;;;3.23;;
826;SDS011;395;48.132;11.608;2023-05-02T05:02:35;3.83;;;3.50;;
826;SDS011;395;48.132;11.608;2023-05-02T05:05:02;4.37;;;3.07;;
826;SDS011;395;48.132;11.608;2023-05-02T05:07:28;3.97;;;3.57;;
826;SDS011;395;48.132;11.608;2023-05-02T05:09:54;4.00;;;3.67;;
826;SDS011;395;48.132;11.608;2023-05-02T05:12:20;3.67;;;3.37;;
826;SDS011;395;48.132;11.608;2023-05-02T05:14:45;3.43;;;3.13;;
826;SDS011;395;48.132;11.608;2023-05-02T05:17:11;3.63;;;3.33;;
826;SDS011;395;48.132;11.608;2023-05-02T05:19:37;3.90;;;3.50;;
826;SDS011;395;48.132;11.608;2023-05-02T05:22:03;4.27;;;2.90;;
826;SDS011;395;48.132;11.608;2023-05-02T05:24:28;3.50;;;3.20;;
826;SDS011;395;48.132;11.608;2023-05-02T05:26:54;3.50;;;3.20;;
826;SDS011;395;48.132;11.608;2023-05-02T05:29:20;3.87;;;3.50;;
826;SDS011;395;48.132;11.608;2023-05-02T05:31:45;3.40;;;3.10;;
826;SDS011;395;48.132;11.608;2023-05-02T05:34:12;3.97;;;3.67;;
826;SDS011;395;48.132;11.608;2023-05-02T05:36:38;3.70;;;3.40;;
826;SDS011;395;48.132;11.608;2023-05-02T05:39:05;3.60;;;3.30;;
826;SDS011;395;48.132;11.608;2023-05-02T05:41:30;4.20;;;3.80;;
826;SDS011;395;48.132;11.608;2023-05-02T05:43:57;3.90;;;3.60;;
826;SDS011;395;48.132;11.608;2023-05-02T05:46:23;4.37;;;3.67;;
826;SDS011;395;48.132;11.608;2023-05-02T05:48:48;4.33;;;4.00;;
826;SDS011;395;48.132;11.608;2023-05-02T05:51:14;3.73;;;3.43;;
826;SDS011;395;48.132;11.608;2023-05-02T05:53:40;5.10;;;3.57;;
826;SDS011;395;48.132;11.608;2023-05-02T05:56:11;4.73;;;4.10;;
826;SDS011;395;48.132;11.608;2023-05-02T05:58:37;4.10;;;3.70;;
826;SDS011;395;48.132;11.608;2023-05-02T06:01:03;4.23;;;3.83;;
826;SDS011;395;48.132;11.608;2023-05-02T06:03:29;4.93;;;4.43;;
826;SDS011;395;48.132;11.608;2023-05-02T06:05:56;5.40;;;4.03;;
826;SDS011;395;48.132;11.608;2023-05-02T06:08:21;4.60;;;3.83;;
826;SDS011;395;48.132;11.608;2023-05-02T06:10:47;4.03;;;3.70;;
826;SDS011;395;48.132;11.608;2023-05-02T06:13:13;4.77;;;4.27;;
826;SDS011;395;48.132;11.608;2023-05-02T06:15:38;4.43;;;4.03;;
826;SDS011;395;48.132;11.608;2023-05-02T06:18:04;4.70;;;4.00;;
826;SDS011;395;48.132;11.608;2023-05-02T06:20:30;5.07;;;3.70;;
826;SDS011;395;48.132;11.608;2023-05-02T06:22:55;4.40;;;4.00;;
826;SDS011;395;48.132;11.608;2023-05-02T06:25:21;4.93;;;4.47;;
826;SDS011;395;48.132;11.608;2023-05-02T06:27:46;4.40;;;3.97;;
826;SDS011;395;48.132;11.608;2023-05-02T06:30:12;4.53;;;4.13;;
826;SDS011;395;48.132;11.608;2023-05-02T06:32:38;4.30;;;4.00;;
826;SDS011;395;48.132;11.608;2023-05-02T06:35:05;5.10;;;4.60;;
826;SDS011;395;48.132;11.608;2023-05-02T06:37:33;4.47;;;4.07;;
826;SDS011;395;48.132;11.608;2023-05-02T06:39:59;5.37;;;4.83;;
826;SDS011;395;48.132;11.608;2023-05-02T06:42:25;7.10;;;4.37;;
826;SDS011;395;48.132;11.608;2023-05-02T06:44:51;5.30;;;4.80;;
826;SDS011;395;48.132;11.608;2023-05-02T06:47:17;5.90;;;4.70;;
826;SDS011;395;48.132;11.608;2023-05-02T06:49:42;4.87;;;4.37;;
826;SDS011;395;48.132;11.608;2023-05-02T06:52:08;5.30;;;4.80;;
826;SDS011;395;48.132;11.608;2023-05-02T06:54:33;6.03;;;5.00;;
826;SDS011;395;48.132;11.608;2023-05-02T06:56:59;5.87;;;5.33;;
826;SDS011;395;48.132;11.608;2023-05-02T06:59:26;5.67;;;5.17;;
826;SDS011;395;48.132;11.608;2023-05-02T07:01:51;6.37;;;5.20;;
826;SDS011;395;48.132;11.608;2023-05-02T07:04:17;5.70;;;5.10;;
826;SDS011;395;48.132;11.608;2023-05-02T07:06:43;5.63;;;5.13;;
826;SDS011;395;48.132;11.608;2023-05-02T07:09:10;6.30;;;5.70;;
826;SDS011;395;48.132;11.608;2023-05-02T07:11:35;9.00;;;5.07;;
826;SDS011;395;48.132;11.608;2023-05-02T07:14:01;5.60;;;5.10;;
826;SDS011;395;48.132;11.608;2023-05-02T07:16:26;5.90;;;5.23;;
826;SDS011;395;48.132;11.608;2023-05-02T07:18:52;6.17;;;5.43;;
826;SDS011;395;48.132;11.608;2023-05-02T07:21:18;5.80;;;5.30;;
826;SDS011;395;48.132;11.608;2023-05-02T07:23:43;6.10;;;5.50;;
826;SDS011;395;48.132;11.608;2023-05-02T07:26:09;7.13;;;6.43;;
826;SDS011;395;48.132;11.608;2023-05-02T07:28:35;5.70;;;5.20;;
826;SDS011;395;48.132;11.608;2023-05-02T07:31:00;7.03;;;6.33;;
826;SDS011;395;48.132;11.608;2023-05-02T07:33:26;6.83;;;6.20;;
826;SDS011;395;48.132;11.608;2023-05-02T07:35:52;6.37;;;5.77;;
826;SDS011;395;48.132;11.608;2023-05-02T07:38:18;6.03;;;5.40;;
826;SDS011;395;48.132;11.608;2023-05-02T07:40:43;5.80;;;5.30;;
826;SDS011;395;48.132;11.608;2023-05-02T07:43:10;10.13;;;6.00;;
826;SDS011;395;48.132;11.608;2023-05-02T07:45:37;8.30;;;6.80;;
826;SDS011;395;48.132;11.608;2023-05-02T07:48:02;7.50;;;6.70;;
826;SDS011;395;48.132;11.608;2023-05-02T07:50:28;5.93;;;5.43;;
826;SDS011;395;48.132;11.608;2023-05-02T07:52:54;7.50;;;6.77;;
826;SDS011;395;48.132;11.608;2023-05-02T07:55:20;7.23;;;6.50;;
826;SDS011;395;48.132;11.608;2023-05-02T07:57:46;8.20;;;6.67;;
826;SDS011;395;48.132;11.608;2023-05-02T08:00:12;6.27;;;5.57;;
826;SDS011;395;48.132;11.608;2023-05-02T08:02:39;5.97;;;5.33;;
826;SDS011;395;48.132;11.608;2023-05-02T08:05:05;7.40;;;5.87;;
826;SDS011;395;48.132;11.608;2023-05-02T08:07:31;6.30;;;5.70;;
826;SDS011;395;48.132;11.608;2023-05-02T08:09:59;7.40;;;6.70;;
826;SDS011;395;48.132;11.608;2023-05-02T08:12:25;6.87;;;6.27;;
826;SDS011;395;48.132;11.608;2023-05-02T08:14:51;7.23;;;6.53;;
826;SDS011;395;48.132;11.608;2023-05-02T08:17:17;7.10;;;6.40;;
826;SDS011;395;48.132;11.608;2023-05-02T08:19:42;7.43;;;6.70;;
826;SDS011;395;48.132;11.608;2023-05-02T08:22:08;8.27;;;7.47;;
826;SDS011;395;48.132;11.608;2023-05-02T08:24:34;7.93;;;7.13;;
826;SDS011;395;48.132;11.608;2023-05-02T08:27:00;6.87;;;6.27;;
826;SDS011;395;48.132;11.608;2023-05-02T08:29:30;7.53;;;6.80;;
826;SDS011;395;48.132;11.608;2023-05-02T08:31:56;7.23;;;6.63;;
826;SDS011;395;48.132;11.608;2023-05-02T08:34:22;14.17;;;7.60;;
826;SDS011;395;48.132;11.608;2023-05-02T08:36:47;6.97;;;6.27;;
826;SDS011;395;48.132;11.608;2023-05-02T08:39:13;8.07;;;7.27;;
826;SDS011;395;48.132;11.608;2023-05-02T08:41:38;7.90;;;7.13;;
826;SDS011;395;48.132;11.608;2023-05-02T08:44:05;7.13;;;6.43;;
826;SDS011;395;48.132;11.608;2023-05-02T08:46:31;7.53;;;6.83;;
826;SDS011;395;48.132;11.608;2023-05-02T08:49:00;6.90;;;6.30;;
826;SDS011;395;48.132;11.608;2023-05-02T08:51:27;8.10;;;7.30;;
826;SDS011;395;48.132;11.608;2023-05-02T08:53:57;7.87;;;7.17;;
826;SDS011;395;48.132;11.608;2023-05-02T08:56:23;7.20;;;6.57;;
826;SDS011;395;48.132;11.608;2023-05-02T08:58:52;6.90;;;6.30;;
826;SDS011;395;48.132;11.608;2023-05-02T09:01:18;7.47;;;6.77;;
826;SDS011;395;48.132;11.608;2023-05-02T09:03:47;6.73;;;6.03;;
826;SDS011;395;48.132;11.608;2023-05-02T09:06:16;6.83;;;6.23;;
826;SDS011;395;48.132;11.608;2023-05-02T09:08:45;7.17;;;6.47;;
826;SDS011;395;48.132;11.608;2023-05-02T09:11:16;7.50;;;6.80;;
826;SDS011;395;48.132;11.608;2023-05-02T09:13:43;7.60;;;6.80;;
826;SDS011;395;48.132;11.608;2023-05-02T09:16:09;7.97;;;7.17;;
826;SDS011;395;48.132;11.608;2023-05-02T09:18:38;7.63;;;6.93;;
826;SDS011;395;48.132;11.608;2023-05-02T09:21:09;6.90;;;6.30;;
826;SDS011;395;48.132;11.608;2023-05-02T09:26:08;8.63;;;7.27;;
826;SDS011;395;48.132;11.608;2023-05-02T09:28:45;7.10;;;6.50;;
826;SDS011;395;48.132;11.608;2023-05-02T09:31:16;9.47;;;7.60;;
826;SDS011;395;48.132;11.608;2023-05-02T09:33:47;8.60;;;7.70;;
826;SDS011;395;48.132;11.608;2023-05-02T09:36:14;8.07;;;6.90;;
826;SDS011;395;48.132;11.608;2023-05-02T09:38:41;8.23;;;7.43;;
826;SDS011;395;48.132;11.608;2023-05-02T09:41:08;10.90;;;8.20;;
826;SDS011;395;48.132;11.608;2023-05-02T09:43:34;7.77;;;7.10;;
826;SDS011;395;48.132;11.608;2023-05-02T09:46:04;8.50;;;7.70;;
826;SDS011;395;48.132;11.608;2023-05-02T09:48:32;7.57;;;6.87;;
826;SDS011;395;48.132;11.608;2023-05-02T09:51:17;14.00;;;8.70;;
826;SDS011;395;48.132;11.608;2023-05-02T09:53:44;9.83;;;6.90;;
826;SDS011;395;48.132;11.608;2023-05-02T09:56:11;7.57;;;6.97;;
826;SDS011;395;48.132;11.608;2023-05-02T09:58:37;7.50;;;6.80;;
826;SDS011;395;48.132;11.608;2023-05-02T10:01:03;7.47;;;6.00;;
826;SDS011;395;48.132;11.608;2023-05-02T10:03:29;6.60;;;6.00;;
826;SDS011;395;48.132;11.608;2023-05-02T10:05:56;7.80;;;5.93;;
826;SDS011;395;48.132;11.608;2023-05-02T10:08:24;8.70;;;7.77;;
826;SDS011;395;48.132;11.608;2023-05-02T10:10:55;7.20;;;6.60;;
826;SDS011;395;48.132;11.608;2023-05-02T10:13:22;9.40;;;8.40;;
826;SDS011;395;48.132;11.608;2023-05-02T10:16:04;8.43;;;7.73;;
826;SDS011;395;48.132;11.608;2023-05-02T10:20:57;8.80;;;7.90;;
826;SDS011;395;48.132;11.608;2023-05-02T10:23:28;7.00;;;6.40;;
826;SDS011;395;48.132;11.608;2023-05-02T10:25:54;8.70;;;7.87;;
826;SDS011;395;48.132;11.608;2023-05-02T10:28:22;8.60;;;7.70;;
826;SDS011;395;48.132;11.608;2023-05-02T10:30:48;9.50;;;8.70;;
826;SDS011;395;48.132;11.608;2023-05-02T10:33:15;7.40;;;6.60;;
826;SDS011;395;48.132;11.608;2023-05-02T10:35:43;7.17;;;6.47;;
826;SDS011;395;48.132;11.608;2023-05-02T10:38:13;8.37;;;7.57;;
826;SDS011;395;48.132;11.608;2023-05-02T10:40:46;7.57;;;6.77;;
826;SDS011;395;48.132;11.608;2023-05-02T10:43:30;8.33;;;7.53;;
826;SDS011;395;48.132;11.608;2023-05-02T10:45:58;8.77;;;7.97;;
826;SDS011;395;48.132;11.608;2023-05-02T10:48:24;8.93;;;6.90;;
826;SDS011;395;48.132;11.608;2023-05-02T10:50:55;8.30;;;7.40;;
826;SDS011;395;48.132;11.608;2023-05-02T10:53:25;9.03;;;8.13;;
826;SDS011;395;48.132;11.608;2023-05-02T10:56:13;7.43;;;6.53;;
826;SDS011;395;48.132;11.608;2023-05-02T10:58:41;8.07;;;7.37;;
826;SDS011;395;48.132;11.608;2023-05-02T11:03:58;9.10;;;8.30;;
826;SDS011;395;48.132;11.608;2023-05-02T11:06:26;7.33;;;6.73;;
826;SDS011;395;48.132;11.608;2023-05-02T11:11:56;9.53;;;8.70;;
826;SDS011;395;48.132;11.608;2023-05-02T11:19:23;8.87;;;7.97;;
826;SDS011;395;48.132;11.608;2023-05-02T11:21:49;13.00;;;8.73;;
826;SDS011;395;48.132;11.608;2023-05-02T11:24:36;9.30;;;8.40;;
826;SDS011;395;48.132;11.608;2023-05-02T11:30:08;9.40;;;8.33;;
826;SDS011;395;48.132;11.608;2023-05-02T11:35:16;8.57;;;7.73;;
826;SDS011;395;48.132;11.608;2023-05-02T11:37:42;10.17;;;9.17;;
826;SDS011;395;48.132;11.608;2023-05-02T11:40:17;8.70;;;7.80;;
826;SDS011;395;48.132;11.608;2023-05-02T11:42:43;13.53;;;7.70;;
826;SDS011;395;48.132;11.608;2023-05-02T11:45:08;9.90;;;8.90;;
826;SDS011;395;48.132;11.608;2023-05-02T11:47:34;9.20;;;7.80;;
826;SDS011;395;48.132;11.608;2023-05-02T11:50:03;10.63;;;7.77;;
826;SDS011;395;48.132;11.608;2023-05-02T11:52:29;9.90;;;8.70;;
826;SDS011;395;48.132;11.608;2023-05-02T11:55:00;9.47;;;8.30;;
826;SDS011;395;48.132;11.608;2023-05-02T11:57:26;16.97;;;11.47;;
826;SDS011;395;48.132;11.608;2023-05-02T11:59:52;8.67;;;7.87;;
826;SDS011;395;48.132;11.608;2023-05-02T12:02:34;8.63;;;7.73;;
826;SDS011;395;48.132;11.608;2023-05-02T12:05:03;10.43;;;9.33;;
826;SDS011;395;48.132;11.608;2023-05-02T12:07:44;11.03;;;9.07;;
826;SDS011;395;48.132;11.608;2023-05-02T12:10:12;11.60;;;9.43;;
826;SDS011;395;48.132;11.608;2023-05-02T12:12:39;9.90;;;8.97;;
826;SDS011;395;48.132;11.608;2023-05-02T12:15:08;10.07;;;9.07;;
826;SDS011;395;48.132;11.608;2023-05-02T12:17:38;10.73;;;9.27;;
826;SDS011;395;48.132;11.608;2023-05-02T12:20:07;11.27;;;9.60;;
826;SDS011;395;48.132;11.608;2023-05-02T12:22:34;9.67;;;8.40;;
826;SDS011;395;48.132;11.608;2023-05-02T12:25:00;9.87;;;8.73;;
826;SDS011;395;48.132;11.608;2023-05-02T12:27:28;10.93;;;9.73;;
826;SDS011;395;48.132;11.608;2023-05-02T12:29:53;9.70;;;8.80;;
826;SDS011;395;48.132;11.608;2023-05-02T12:32:31;10.00;;;9.10;;
826;SDS011;395;48.132;11.608;2023-05-02T12:34:58;8.70;;;7.80;;
826;SDS011;395;48.132;11.608;2023-05-02T12:37:25;9.53;;;8.63;;
826;SDS011;395;48.132;11.608;2023-05-02T12:39:51;9.60;;;8.70;;
826;SDS011;395;48.132;11.608;2023-05-02T12:42:18;10.10;;;9.20;;
826;SDS011;395;48.132;11.608;2023-05-02T12:44:45;9.20;;;7.40;;
826;SDS011;395;48.132;11.608;2023-05-02T12:47:13;7.70;;;7.00;;
826;SDS011;395;48.132;11.608;2023-05-02T12:49:56;9.33;;;8.43;;
826;SDS011;395;48.132;11.608;2023-05-02T12:55:18;9.30;;;8.40;;
826;SDS011;395;48.132;11.608;2023-05-02T12:57:45;9.00;;;8.10;;
826;SDS011;395;48.132;11.608;2023-05-02T13:00:12;7.30;;;6.63;;
826;SDS011;395;48.132;11.608;2023-05-02T13:02:40;5.77;;;5.27;;
826;SDS011;395;48.132;11.608;2023-05-02T13:05:15;6.40;;;5.80;;
826;SDS011;395;48.132;11.608;2023-05-02T13:07:42;6.00;;;5.50;;
826;SDS011;395;48.132;11.608;2023-05-02T13:10:08;6.97;;;6.30;;
826;SDS011;395;48.132;11.608;2023-05-02T13:12:35;6.67;;;6.17;;
826;SDS011;395;48.132;11.608;2023-05-02T13:15:05;9.30;;;6.00;;
826;SDS011;395;48.132;11.608;2023-05-02T13:17:32;7.10;;;6.50;;
826;SDS011;395;48.132;11.608;2023-05-02T13:19:58;6.50;;;5.90;;
826;SDS011;395;48.132;11.608;2023-05-02T13:22:24;6.13;;;5.60;;
826;SDS011;395;48.132;11.608;2023-05-02T13:24:50;6.53;;;6.00;;
826;SDS011;395;48.132;11.608;2023-05-02T13:27:17;5.83;;;5.43;;
826;SDS011;395;48.132;11.608;2023-05-02T13:29:43;5.40;;;4.93;;
826;SDS011;395;48.132;11.608;2023-05-02T13:32:09;6.50;;;5.90;;
826;SDS011;395;48.132;11.608;2023-05-02T13:34:35;6.40;;;5.80;;
826;SDS011;395;48.132;11.608;2023-05-02T13:37:00;5.53;;;5.13;;
826;SDS011;395;48.132;11.608;2023-05-02T13:39:26;5.87;;;5.40;;
826;SDS011;395;48.132;11.608;2023-05-02T13:41:51;4.60;;;4.20;;
826;SDS011;395;48.132;11.608;2023-05-02T13:44:17;4.50;;;4.13;;
826;SDS011;395;48.132;11.608;2023-05-02T13:46:43;6.50;;;5.90;;
826;SDS011;395;48.132;11.608;2023-05-02T13:49:08;6.20;;;5.70;;
826;SDS011;395;48.132;11.608;2023-05-02T13:51:34;5.60;;;5.10;;
826;SDS011;395;48.132;11.608;2023-05-02T13:54:00;11.70;;;10.70;;
826;SDS011;395;48.132;11.608;2023-05-02T13:56:26;17.23;;;13.50;;
826;SDS011;395;48.132;11.608;2023-05-02T13:58:52;18.10;;;12.30;;
826;SDS011;395;48.132;11.608;2023-05-02T14:01:17;11.43;;;10.10;;
826;SDS011;395;48.132;11.608;2023-05-02T14:03:43;12.20;;;10.47;;
826;SDS011;395;48.132;11.608;2023-05-02T14:06:08;13.43;;;10.17;;
826;SDS011;395;48.132;11.608;2023-05-02T14:08:34;6.93;;;6.33;;
826;SDS011;395;48.132;11.608;2023-05-02T14:11:00;4.33;;;4.00;;
826;SDS011;395;48.132;11.608;2023-05-02T14:13:26;4.07;;;3.73;;
826;SDS011;395;48.132;11.608;2023-05-02T14:15:52;6.50;;;5.70;;
826;SDS011;395;48.132;11.608;2023-05-02T14:18:18;4.03;;;3.70;;
826;SDS011;395;48.132;11.608;2023-05-02T14:20:43;5.40;;;4.20;;
826;SDS011;395;48.132;11.608;2023-05-02T14:23:09;5.73;;;5.13;;
826;SDS011;395;48.132;11.608;2023-05-02T14:25:35;11.20;;;9.37;;
826;SDS011;395;48.132;11.608;2023-05-02T14:28:01;21.67;;;15.63;;
826;SDS011;395;48.132;11.608;2023-05-02T14:30:28;11.47;;;8.50;;
826;SDS011;395;48.132;11.608;2023-05-02T14:32:55;6.20;;;5.60;;
826;SDS011;395;48.132;11.608;2023-05-02T14:35:21;7.53;;;6.70;;
826;SDS011;395;48.132;11.608;2023-05-02T14:37:47;16.03;;;14.43;;
826;SDS011;395;48.132;11.608;2023-05-02T14:40:12;17.07;;;13.70;;
826;SDS011;395;48.132;11.608;2023-05-02T14:42:38;27.90;;;19.03;;
826;SDS011;395;48.132;11.608;2023-05-02T14:45:05;8.60;;;7.20;;
826;SDS011;395;48.132;11.608;2023-05-02T14:47:32;9.60;;;7.13;;
826;SDS011;395;48.132;11.608;2023-05-02T14:49:58;7.80;;;6.20;;
826;SDS011;395;48.132;11.608;2023-05-02T14:52:25;7.70;;;6.17;;
826;SDS011;395;48.132;11.608;2023-05-02T14:54:51;7.80;;;6.17;;
826;SDS011;395;48.132;11.608;2023-05-02T14:57:17;5.67;;;5.20;;
826;SDS011;395;48.132;11.608;2023-05-02T14:59:43;31.40;;;22.87;;
826;SDS011;395;48.132;11.608;2023-05-02T15:02:09;25.33;;;20.23;;
826;SDS011;395;48.132;11.608;2023-05-02T15:04:35;20.33;;;15.67;;
826;SDS011;395;48.132;11.608;2023-05-02T15:07:01;27.43;;;21.00;;
826;SDS011;395;48.132;11.608;2023-05-02T15:09:30;13.40;;;11.97;;
826;SDS011;395;48.132;11.608;2023-05-02T15:11:55;34.30;;;26.23;;
826;SDS011;395;48.132;11.608;2023-05-02T15:14:21;40.50;;;30.23;;
826;SDS011;395;48.132;11.608;2023-05-02T15:16:47;15.73;;;13.73;;
826;SDS011;395;48.132;11.608;2023-05-02T15:19:12;18.77;;;16.30;;
826;SDS011;395;48.132;11.608;2023-05-02T15:21:38;19.90;;;16.60;;
826;SDS011;395;48.132;11.608;2023-05-02T15:24:04;13.03;;;11.40;;
826;SDS011;395;48.132;11.608;2023-05-02T15:26:30;7.07;;;6.13;;
826;SDS011;395;48.132;11.608;2023-05-02T15:28:56;5.57;;;5.07;;
826;SDS011;395;48.132;11.608;2023-05-02T15:31:22;4.80;;;4.40;;
826;SDS011;395;48.132;11.608;2023-05-02T15:33:49;4.67;;;4.30;;
826;SDS011;395;48.132;11.608;2023-05-02T15:36:15;17.80;;;14.60;;
826;SDS011;395;48.132;11.608;2023-05-02T15:38:41;13.50;;;11.40;;
826;SDS011;395;48.132;11.608;2023-05-02T15:41:07;19.80;;;16.13;;
826;SDS011;395;48.132;11.608;2023-05-02T15:43:36;15.10;;;13.50;;
826;SDS011;395;48.132;11.608;2023-05-02T15:46:02;14.83;;;11.93;;
826;SDS011;395;48.132;11.608;2023-05-02T15:48:28;19.60;;;14.17;;
826;SDS011;395;48.132;11.608;2023-05-02T15:50:57;10.57;;;9.43;;
826;SDS011;395;48.132;11.608;2023-05-02T15:53:23;8.17;;;7.00;;
826;SDS011;395;48.132;11.608;2023-05-02T15:55:49;17.83;;;13.73;;
826;SDS011;395;48.132;11.608;2023-05-02T15:58:16;7.73;;;7.00;;
826;SDS011;395;48.132;11.608;2023-05-02T16:00:42;18.17;;;14.10;;
826;SDS011;395;48.132;11.608;2023-05-02T16:03:09;10.67;;;9.57;;
826;SDS011;395;48.132;11.608;2023-05-02T16:05:39;12.70;;;10.67;;
826;SDS011;395;48.132;11.608;2023-05-02T16:08:05;6.87;;;6.27;;
826;SDS011;395;48.132;11.608;2023-05-02T16:10:30;6.90;;;5.70;;
826;SDS011;395;48.132;11.608;2023-05-02T16:12:56;32.00;;;23.67;;
826;SDS011;395;48.132;11.608;2023-05-02T16:15:22;33.77;;;27.00;;